Jimmy Lake, Canada
Current Conditions -  °F | °C
As of 6:34 AM on Friday 21 Nov 2014 (Local Time) from CWHN Reporting Station
Overcast Overcast  
Wind Chill:   Ceiling: 600
Heat Index:   Visibility: 2.5mi
Dew Point:   Wind: 3mph
Humidity: 100%   Direction: 330°NNW
Pressure: 29.37"   Gusts: NA
Location:  54.9°N, 109.97°W
Report Text: CWHN 211234Z AUTO 33003KT 2 1/2SM OVC006 00/M00 A2937 RMK ICG
Loading
Personal Weather Stations






























Interactive Weather Map New forecast layout! Learn more

10-Day Weather Forecast

Advertisements
Track Severe Weather on mobile